createdAt,value
2018-01-01T00:01:42.388Z,99426.95
2018-01-01T00:04:10.046Z,99427.01
2018-01-01T00:06:37.601Z,99430.61
2018-01-01T00:09:05.450Z,99433.19
2018-01-01T00:11:33.247Z,99418.20
2018-01-01T00:14:00.779Z,99421.69
2018-01-01T00:16:28.321Z,99427.48
2018-01-01T00:18:55.860Z,99436.23
2018-01-01T00:21:23.392Z,99423.23
2018-01-01T00:26:17.731Z,99425.22
2018-01-01T00:28:45.265Z,99428.87
2018-01-01T00:31:12.825Z,99428.33
2018-01-01T00:33:40.349Z,99423.81
2018-01-01T00:36:08.173Z,99426.12
2018-01-01T00:38:35.685Z,99424.48
2018-01-01T00:41:03.212Z,99420.10
2018-01-01T00:43:30.813Z,99417.05
2018-01-01T00:45:58.332Z,99412.59
2018-01-01T00:48:25.853Z,99412.16
2018-01-01T00:50:53.383Z,99402.83
2018-01-01T00:53:20.899Z,99393.45
2018-01-01T00:55:48.418Z,99397.83
2018-01-01T00:58:15.983Z,99389.97
2018-01-01T01:00:43.532Z,99401.14
2018-01-01T01:03:11.196Z,99391.91
2018-01-01T01:05:38.710Z,99390.05
2018-01-01T01:08:06.224Z,99387.69
2018-01-01T01:10:33.824Z,99390.66
2018-01-01T01:13:01.328Z,99398.94
2018-01-01T01:15:28.872Z,99404.20
2018-01-01T01:17:56.388Z,99402.06
2018-01-01T01:20:23.901Z,99409.20
2018-01-01T01:22:51.400Z,99407.14
2018-01-01T01:25:18.913Z,99399.95
2018-01-01T01:27:46.438Z,99403.06
2018-01-01T01:30:13.948Z,99396.44
2018-01-01T01:32:41.468Z,99405.16
2018-01-01T01:35:08.979Z,99415.91
2018-01-01T01:37:36.511Z,99415.23
2018-01-01T01:40:04.027Z,99419.31
2018-01-01T01:42:31.539Z,99423.77
2018-01-01T01:44:59.066Z,99411.69
2018-01-01T01:47:26.617Z,99424.45
2018-01-01T01:49:54.131Z,99426.28
2018-01-01T01:52:21.653Z,99440.98
2018-01-01T01:54:49.170Z,99439.63
2018-01-01T01:57:16.680Z,99446.41
2018-01-01T01:59:44.181Z,99447.02
2018-01-01T02:02:11.697Z,99441.67
2018-01-01T02:04:39.228Z,99444.76
2018-01-01T02:07:06.749Z,99428.71
2018-01-01T02:09:34.264Z,99429.99
2018-01-01T02:12:01.781Z,99430.80
2018-01-01T02:14:29.295Z,99426.77
2018-01-01T02:16:56.798Z,99422.86
2018-01-01T02:19:24.314Z,99427.85
2018-01-01T02:21:51.822Z,99431.63
2018-01-01T02:24:19.332Z,99441.22
2018-01-01T02:26:46.846Z,99438.22
2018-01-01T02:29:14.359Z,99436.87
2018-01-01T02:31:41.883Z,99435.67
2018-01-01T02:34:09.397Z,99433.48
2018-01-01T02:36:36.925Z,99435.19
2018-01-01T02:39:04.442Z,99446.59
2018-01-01T02:41:31.946Z,99456.64
2018-01-01T02:43:59.462Z,99467.09
2018-01-01T02:46:26.984Z,99466.09
2018-01-01T02:48:54.497Z,99468.26
2018-01-01T02:51:22.022Z,99470.52
2018-01-01T02:53:49.537Z,99471.72
2018-01-01T02:56:17.051Z,99462.32
2018-01-01T02:58:44.555Z,99467.15
2018-01-01T03:01:12.060Z,99474.05
2018-01-01T03:03:39.575Z,99471.48
2018-01-01T03:06:07.071Z,99488.93
2018-01-01T03:08:34.572Z,99502.41
2018-01-01T03:11:02.082Z,99507.35
2018-01-01T03:13:29.584Z,99497.30
2018-01-01T03:15:57.080Z,99503.69
2018-01-01T03:18:24.584Z,99508.34
2018-01-01T03:20:52.090Z,99504.20
2018-01-01T03:23:19.617Z,99495.41
2018-01-01T03:25:47.125Z,99507.73
2018-01-01T03:28:14.638Z,99512.61
2018-01-01T03:30:42.144Z,99507.55
2018-01-01T03:33:09.649Z,99513.71
2018-01-01T03:35:37.148Z,99515.78
2018-01-01T03:38:04.653Z,99514.38
2018-01-01T03:40:32.153Z,99516.46
2018-01-01T03:42:59.658Z,99522.13
2018-01-01T03:45:27.179Z,99521.64
2018-01-01T03:47:54.711Z,99526.45
2018-01-01T03:50:22.217Z,99524.20
2018-01-01T03:52:49.725Z,99528.52
2018-01-01T03:55:17.240Z,99522.75
2018-01-01T03:57:44.758Z,99525.41
2018-01-01T04:00:12.272Z,99532.67
2018-01-01T04:02:39.789Z,99528.39
2018-01-01T04:05:07.293Z,99518.89
2018-01-01T04:07:34.814Z,99529.78
2018-01-01T04:10:02.324Z,99516.03
2018-01-01T04:12:29.826Z,99518.70
2018-01-01T04:14:57.344Z,99525.58
2018-01-01T04:17:24.860Z,99521.09
2018-01-01T04:19:52.360Z,99527.16
2018-01-01T04:22:19.881Z,99532.66
2018-01-01T04:24:47.386Z,99535.70
2018-01-01T04:27:14.888Z,99534.17
2018-01-01T04:29:42.404Z,99529.16
2018-01-01T04:32:09.916Z,99537.23
2018-01-01T04:34:37.413Z,99537.77
2018-01-01T04:37:04.926Z,99540.98
2018-01-01T04:39:32.436Z,99540.37
2018-01-01T04:41:59.944Z,99537.95
2018-01-01T04:44:27.449Z,99529.22
2018-01-01T04:46:54.956Z,99537.13
2018-01-01T04:49:22.475Z,99527.06
2018-01-01T04:51:49.972Z,99527.63
2018-01-01T04:54:17.482Z,99537.48
2018-01-01T04:56:44.986Z,99543.45
2018-01-01T04:59:12.492Z,99541.98
2018-01-01T05:01:40.005Z,99542.89
2018-01-01T05:04:07.513Z,99543.27
2018-01-01T05:06:35.017Z,99546.61
2018-01-01T05:09:02.573Z,99544.27
2018-01-01T05:11:30.080Z,99545.00
2018-01-01T05:13:57.588Z,99544.55
2018-01-01T05:16:25.093Z,99539.95
2018-01-01T05:18:52.607Z,99539.42
2018-01-01T05:21:20.102Z,99542.05
2018-01-01T05:23:47.624Z,99536.87
2018-01-01T05:26:15.128Z,99542.52
2018-01-01T05:28:42.633Z,99553.03
2018-01-01T05:31:10.148Z,99553.72
2018-01-01T05:33:37.660Z,99550.78
2018-01-01T05:36:05.181Z,99558.34
2018-01-01T05:38:32.685Z,99554.96
2018-01-01T05:41:00.185Z,99560.80
2018-01-01T05:43:27.706Z,99574.14
2018-01-01T05:45:55.204Z,99588.83
2018-01-01T05:48:22.707Z,99586.20
2018-01-01T05:50:50.208Z,99582.98
2018-01-01T05:53:17.717Z,99568.78
2018-01-01T05:55:45.224Z,99555.46
2018-01-01T05:58:12.730Z,99573.89
2018-01-01T06:00:40.245Z,99569.81
2018-01-01T06:03:07.752Z,99592.70
2018-01-01T06:05:35.261Z,99597.57
2018-01-01T06:08:02.780Z,99602.06
2018-01-01T06:10:30.291Z,99608.99
2018-01-01T06:12:57.802Z,99614.30
2018-01-01T06:15:25.311Z,99621.33
2018-01-01T06:17:52.823Z,99632.09
2018-01-01T06:20:20.326Z,99633.96
2018-01-01T06:22:47.834Z,99653.45
2018-01-01T06:25:15.334Z,99648.47
2018-01-01T06:27:42.836Z,99657.95
2018-01-01T06:30:10.341Z,99657.84
2018-01-01T06:32:37.852Z,99665.95
2018-01-01T06:35:05.360Z,99668.52
2018-01-01T06:37:32.864Z,99677.23
2018-01-01T06:40:00.373Z,99681.25
2018-01-01T06:42:27.881Z,99684.94
2018-01-01T06:44:55.396Z,99682.06
2018-01-01T06:47:22.918Z,99695.98
2018-01-01T06:49:50.420Z,99689.77
2018-01-01T06:52:17.943Z,99697.06
2018-01-01T06:54:45.469Z,99686.83
2018-01-01T06:57:12.976Z,99698.23
2018-01-01T06:59:40.486Z,99693.09
2018-01-01T07:02:08.029Z,99703.47
2018-01-01T07:04:35.537Z,99705.83
2018-01-01T07:07:03.044Z,99697.69
2018-01-01T07:09:30.575Z,99697.69
2018-01-01T07:11:58.089Z,99704.88
2018-01-01T07:14:25.592Z,99704.33
2018-01-01T07:16:53.092Z,99699.23
2018-01-01T07:19:20.591Z,99693.52
2018-01-01T07:21:48.099Z,99689.91
2018-01-01T07:24:15.610Z,99693.03
2018-01-01T07:26:43.127Z,99698.53
2018-01-01T07:29:10.636Z,99717.05
2018-01-01T07:31:38.137Z,99718.12
2018-01-01T07:34:05.641Z,99723.69
2018-01-01T07:36:33.146Z,99735.25
2018-01-01T07:39:00.670Z,99724.45
2018-01-01T07:41:28.181Z,99735.09
2018-01-01T07:43:55.686Z,99727.55
2018-01-01T07:46:23.197Z,99729.27
2018-01-01T07:48:50.700Z,99727.11
2018-01-01T07:51:18.201Z,99725.25
2018-01-01T07:53:45.700Z,99735.95
2018-01-01T07:56:13.199Z,99731.77
2018-01-01T07:58:40.691Z,99736.85
2018-01-01T08:01:08.188Z,99736.07
2018-01-01T08:03:35.684Z,99740.02
2018-01-01T08:06:03.185Z,99741.15
2018-01-01T08:08:30.695Z,99741.64
2018-01-01T08:10:58.213Z,99743.36
2018-01-01T08:13:25.728Z,99760.27
2018-01-01T08:15:53.225Z,99754.75
2018-01-01T08:18:20.736Z,99764.13
2018-01-01T08:20:48.239Z,99764.84
2018-01-01T08:23:15.733Z,99766.40
2018-01-01T08:25:43.224Z,99772.98
2018-01-01T08:28:10.741Z,99781.86
2018-01-01T08:30:38.242Z,99779.88
2018-01-01T08:33:05.742Z,99780.69
2018-01-01T08:35:33.257Z,99785.36
2018-01-01T08:38:00.761Z,99780.45
2018-01-01T08:40:28.260Z,99790.39
2018-01-01T08:42:55.772Z,99787.39
2018-01-01T08:45:23.280Z,99785.92
2018-01-01T08:47:50.779Z,99791.84
2018-01-01T08:50:18.289Z,99799.77
2018-01-01T08:52:45.790Z,99796.28
2018-01-01T08:55:13.321Z,99798.36
2018-01-01T08:57:40.834Z,99804.89
2018-01-01T09:00:08.336Z,99807.77
2018-01-01T09:02:35.847Z,99815.88
2018-01-01T09:05:03.353Z,99814.30
2018-01-01T09:07:30.861Z,99812.50
2018-01-01T09:09:58.366Z,99813.94
2018-01-01T09:12:25.881Z,99812.86
2018-01-01T09:14:53.395Z,99817.70
2018-01-01T09:17:20.934Z,99811.37
2018-01-01T09:19:48.505Z,99816.67
2018-01-01T09:22:16.027Z,99812.78
2018-01-01T09:24:43.534Z,99818.63
2018-01-01T09:27:11.053Z,99833.23
2018-01-01T09:29:38.560Z,99831.92
2018-01-01T09:32:06.069Z,99824.26
2018-01-01T09:34:33.583Z,99842.66
2018-01-01T09:37:01.097Z,99850.16
2018-01-01T09:39:28.622Z,99837.06
2018-01-01T09:41:56.135Z,99841.91
2018-01-01T09:44:23.657Z,99844.34
2018-01-01T09:46:51.169Z,99839.38
2018-01-01T09:49:18.713Z,99839.52
2018-01-01T09:51:46.249Z,99850.06
2018-01-01T09:54:13.877Z,99840.81
2018-01-01T09:56:41.426Z,99842.77
2018-01-01T09:59:08.945Z,99837.98
2018-01-01T10:01:36.472Z,99843.38
2018-01-01T10:04:04.006Z,99847.04
2018-01-01T10:06:31.658Z,99850.64
2018-01-01T10:08:59.162Z,99853.23
2018-01-01T10:11:26.676Z,99844.78
2018-01-01T10:13:54.188Z,99842.59
2018-01-01T10:16:21.698Z,99838.42
2018-01-01T10:18:49.255Z,99854.53
2018-01-01T10:21:16.762Z,99857.98
2018-01-01T10:23:44.266Z,99866.21
2018-01-01T10:26:11.783Z,99864.36
2018-01-01T10:28:39.337Z,99862.43
2018-01-01T10:31:06.853Z,99866.63
2018-01-01T10:33:34.365Z,99880.36
2018-01-01T10:36:01.902Z,99864.50
2018-01-01T10:38:29.424Z,99875.52
2018-01-01T10:40:57.991Z,99862.89
2018-01-01T10:43:25.490Z,99870.30
2018-01-01T10:45:52.997Z,99868.91
2018-01-01T10:48:20.504Z,99878.20
2018-01-01T10:50:48.020Z,99885.55
2018-01-01T10:53:15.552Z,99877.72
2018-01-01T10:55:43.061Z,99878.03
2018-01-01T10:58:10.583Z,99878.95
2018-01-01T11:00:38.102Z,99876.82
2018-01-01T11:03:05.610Z,99872.54
2018-01-01T11:05:33.123Z,99870.24
2018-01-01T11:08:00.647Z,99870.50
2018-01-01T11:10:28.174Z,99866.42
2018-01-01T11:12:55.682Z,99869.09
2018-01-01T11:15:23.192Z,99866.80
2018-01-01T11:17:50.696Z,99845.62
2018-01-01T11:20:18.212Z,99852.48
2018-01-01T11:22:45.716Z,99853.61
2018-01-01T11:25:13.217Z,99856.13
2018-01-01T11:27:40.737Z,99846.05
2018-01-01T11:30:08.253Z,99854.20
2018-01-01T11:32:35.764Z,99851.95
2018-01-01T11:35:03.300Z,99840.54
2018-01-01T11:37:30.810Z,99841.53
2018-01-01T11:39:58.325Z,99844.84
2018-01-01T11:42:25.830Z,99842.17
2018-01-01T11:44:53.340Z,99848.36
2018-01-01T11:47:20.858Z,99849.05
2018-01-01T11:49:48.363Z,99848.55
2018-01-01T11:52:15.878Z,99846.83
2018-01-01T11:54:43.398Z,99835.02
2018-01-01T11:57:10.909Z,99843.77
2018-01-01T11:59:38.420Z,99843.47
2018-01-01T12:02:05.951Z,99835.75
2018-01-01T12:04:33.468Z,99842.82
2018-01-01T12:07:00.976Z,99850.70
2018-01-01T12:09:28.489Z,99846.32
2018-01-01T12:11:55.992Z,99819.52
2018-01-01T12:14:23.503Z,99833.18
2018-01-01T12:16:51.013Z,99822.30
2018-01-01T12:19:18.524Z,99837.20
2018-01-01T12:21:46.045Z,99835.28
2018-01-01T12:24:13.556Z,99834.97
2018-01-01T12:26:41.067Z,99836.14
2018-01-01T12:29:08.597Z,99830.52
2018-01-01T12:31:36.106Z,99834.80
2018-01-01T12:34:03.612Z,99840.16
2018-01-01T12:36:31.126Z,99830.77
2018-01-01T12:38:58.633Z,99831.73
2018-01-01T12:41:26.142Z,99829.48
2018-01-01T12:43:53.660Z,99826.75
2018-01-01T12:46:21.161Z,99828.25
2018-01-01T12:48:48.982Z,99834.58
2018-01-01T12:51:16.480Z,99831.63
2018-01-01T12:53:43.989Z,99829.39
2018-01-01T12:56:11.504Z,99826.75
2018-01-01T12:58:39.134Z,99828.36
2018-01-01T13:01:06.638Z,99831.36
2018-01-01T13:03:34.145Z,99820.27
2018-01-01T13:06:01.660Z,99834.36
2018-01-01T13:08:29.177Z,99836.97
2018-01-01T13:10:56.693Z,99823.05
2018-01-01T13:13:24.206Z,99821.88
2018-01-01T13:15:51.710Z,99826.16
2018-01-01T13:18:19.312Z,99822.55
2018-01-01T13:20:46.855Z,99820.22
2018-01-01T13:23:14.361Z,99843.64
2018-01-01T13:25:41.874Z,99839.05
2018-01-01T13:28:09.433Z,99841.16
2018-01-01T13:30:36.964Z,99838.92
2018-01-01T13:33:04.558Z,99851.10
2018-01-01T13:35:32.067Z,99846.02
2018-01-01T13:37:59.582Z,99848.52
2018-01-01T13:40:27.100Z,99839.89
2018-01-01T13:42:54.625Z,99843.42
2018-01-01T13:45:22.119Z,99846.92
2018-01-01T13:47:49.713Z,99849.02
2018-01-01T13:50:17.203Z,99852.38
2018-01-01T13:52:44.754Z,99851.47
2018-01-01T13:55:12.273Z,99852.27
2018-01-01T13:57:39.784Z,99860.58
2018-01-01T14:00:07.414Z,99857.48
2018-01-01T14:02:34.932Z,99856.53
2018-01-01T14:05:02.508Z,99856.53
2018-01-01T14:07:30.056Z,99857.05
2018-01-01T14:09:57.656Z,99856.53
2018-01-01T14:12:25.170Z,99856.58
2018-01-01T14:14:52.787Z,99850.69
2018-01-01T14:17:20.302Z,99852.95
2018-01-01T14:19:47.816Z,99858.48
2018-01-01T14:22:15.318Z,99853.61
2018-01-01T14:24:42.828Z,99853.86
2018-01-01T14:27:10.332Z,99857.77
2018-01-01T14:29:37.860Z,99854.85
2018-01-01T14:32:05.377Z,99855.17
2018-01-01T14:34:32.957Z,99862.05
2018-01-01T14:37:00.510Z,99857.56
2018-01-01T14:39:28.024Z,99857.86
2018-01-01T14:41:55.540Z,99860.30
2018-01-01T14:44:23.050Z,99855.75
2018-01-01T14:46:50.669Z,99864.87
2018-01-01T14:49:18.183Z,99854.47
2018-01-01T14:51:45.740Z,99859.62
2018-01-01T14:54:13.281Z,99860.61
2018-01-01T14:56:40.786Z,99862.70
2018-01-01T14:59:08.288Z,99864.19
2018-01-01T15:01:35.792Z,99863.19
2018-01-01T15:04:03.288Z,99862.75
2018-01-01T15:06:30.826Z,99851.63
2018-01-01T15:08:58.341Z,99848.39
2018-01-01T15:11:25.852Z,99845.67
2018-01-01T15:13:53.386Z,99848.30
2018-01-01T15:16:20.952Z,99846.40
2018-01-01T15:18:48.521Z,99846.81
2018-01-01T15:21:16.387Z,99848.58
2018-01-01T15:23:43.921Z,99845.06
2018-01-01T15:26:11.481Z,99841.01
2018-01-01T15:28:39.072Z,99847.25
2018-01-01T15:31:06.588Z,99842.05
2018-01-01T15:33:34.088Z,99837.84
2018-01-01T15:36:01.593Z,99842.24
2018-01-01T15:38:29.105Z,99841.01
2018-01-01T15:40:56.615Z,99844.24
2018-01-01T15:43:24.145Z,99843.15
2018-01-01T15:45:51.655Z,99839.23
2018-01-01T15:48:19.168Z,99846.02
2018-01-01T15:50:46.802Z,99841.00
2018-01-01T15:53:14.307Z,99847.25
2018-01-01T15:55:41.806Z,99836.13
2018-01-01T15:58:09.395Z,99842.95
2018-01-01T16:00:36.921Z,99842.39
2018-01-01T16:03:04.424Z,99841.23
2018-01-01T16:05:31.929Z,99836.31
2018-01-01T16:07:59.518Z,99837.66
2018-01-01T16:10:27.030Z,99839.27
2018-01-01T16:12:54.544Z,99831.97
2018-01-01T16:15:22.122Z,99838.74
2018-01-01T16:17:49.624Z,99838.50
2018-01-01T16:20:17.171Z,99835.22
2018-01-01T16:22:44.673Z,99833.50
2018-01-01T16:25:12.169Z,99834.93
2018-01-01T16:27:39.663Z,99831.30
2018-01-01T16:30:07.235Z,99837.22
2018-01-01T16:32:34.745Z,99828.30
2018-01-01T16:35:02.248Z,99832.53
2018-01-01T16:37:29.752Z,99833.63
2018-01-01T16:39:57.273Z,99837.00
2018-01-01T16:42:24.775Z,99834.47
2018-01-01T16:44:52.387Z,99835.95
2018-01-01T16:47:19.897Z,99831.98
2018-01-01T16:49:47.399Z,99839.23
2018-01-01T16:52:14.933Z,99834.31
2018-01-01T16:54:42.516Z,99834.98
2018-01-01T16:57:10.042Z,99820.98
2018-01-01T16:59:37.675Z,99819.30
2018-01-01T17:02:05.180Z,99822.64
2018-01-01T17:04:32.699Z,99826.05
2018-01-01T17:07:00.209Z,99826.96
2018-01-01T17:09:27.740Z,99826.96
2018-01-01T17:11:55.349Z,99831.63
2018-01-01T17:14:22.856Z,99824.48
2018-01-01T17:16:50.481Z,99826.29
2018-01-01T17:19:17.991Z,99826.86
2018-01-01T17:21:45.596Z,99827.89
2018-01-01T17:24:13.145Z,99830.02
2018-01-01T17:26:40.721Z,99826.45
2018-01-01T17:29:08.215Z,99828.78
2018-01-01T17:31:35.703Z,99827.75
2018-01-01T17:34:03.217Z,99823.62
2018-01-01T17:36:30.712Z,99827.93
2018-01-01T17:38:58.247Z,99821.73
2018-01-01T17:41:25.745Z,99821.59
2018-01-01T17:43:53.292Z,99809.33
2018-01-01T17:46:20.798Z,99820.13
2018-01-01T17:48:48.300Z,99818.75
2018-01-01T17:51:15.812Z,99819.91
2018-01-01T17:53:43.313Z,99816.94
2018-01-01T17:56:10.816Z,99814.95
2018-01-01T17:58:38.317Z,99810.08
2018-01-01T18:01:05.828Z,99815.66
2018-01-01T18:03:33.330Z,99806.41
2018-01-01T18:06:00.828Z,99812.41
2018-01-01T18:08:28.340Z,99809.29
2018-01-01T18:10:55.847Z,99822.86
2018-01-01T18:13:23.359Z,99826.98
2018-01-01T18:15:50.864Z,99832.20
2018-01-01T18:18:18.369Z,99831.22
2018-01-01T18:20:45.868Z,99831.33
2018-01-01T18:23:13.377Z,99836.51
2018-01-01T18:25:40.885Z,99828.98
2018-01-01T18:28:08.391Z,99837.64
2018-01-01T18:30:35.886Z,99840.85
2018-01-01T18:33:03.432Z,99842.27
2018-01-01T18:35:30.945Z,99845.75
2018-01-01T18:37:58.450Z,99849.75
2018-01-01T18:40:25.969Z,99846.19
2018-01-01T18:42:53.476Z,99841.37
2018-01-01T18:45:21.006Z,99834.74
2018-01-01T18:47:48.539Z,99833.06
2018-01-01T18:50:16.044Z,99836.46
2018-01-01T18:52:43.553Z,99832.42
2018-01-01T18:55:11.061Z,99829.52
2018-01-01T18:57:38.569Z,99826.91
2018-01-01T19:00:06.077Z,99827.09
2018-01-01T19:02:33.601Z,99830.77
2018-01-01T19:05:01.108Z,99839.02
2018-01-01T19:07:28.650Z,99835.11
2018-01-01T19:09:56.154Z,99845.58
2018-01-01T19:12:23.660Z,99842.06
2018-01-01T19:14:51.157Z,99839.11
2018-01-01T19:17:18.699Z,99831.63
2018-01-01T19:19:46.224Z,99834.98
2018-01-01T19:22:13.748Z,99830.24
2018-01-01T19:24:41.274Z,99830.31
2018-01-01T19:27:08.789Z,99826.51
2018-01-01T19:29:36.284Z,99825.72
2018-01-01T19:32:03.797Z,99823.17
2018-01-01T19:34:31.321Z,99828.95
2018-01-01T19:36:58.872Z,99829.53
2018-01-01T19:39:26.399Z,99823.92
2018-01-01T19:41:53.917Z,99823.49
2018-01-01T19:44:21.422Z,99827.23
2018-01-01T19:46:48.949Z,99825.97
2018-01-01T19:49:16.469Z,99820.94
2018-01-01T19:51:43.980Z,99812.56
2018-01-01T19:54:11.527Z,99814.87
2018-01-01T19:56:39.058Z,99817.13
2018-01-01T19:59:06.609Z,99816.38
2018-01-01T20:01:34.117Z,99817.56
2018-01-01T20:04:01.625Z,99815.94
2018-01-01T20:06:29.152Z,99810.66
2018-01-01T20:08:56.674Z,99815.66
2018-01-01T20:11:24.181Z,99817.48
2018-01-01T20:13:51.692Z,99823.63
2018-01-01T20:16:19.208Z,99824.92
2018-01-01T20:18:46.708Z,99823.56
2018-01-01T20:21:14.218Z,99820.03
2018-01-01T20:23:41.772Z,99819.06
2018-01-01T20:26:09.302Z,99823.92
2018-01-01T20:28:36.822Z,99818.64
2018-01-01T20:31:04.338Z,99819.14
2018-01-01T20:33:31.842Z,99812.09
2018-01-01T20:35:59.349Z,99812.20
2018-01-01T20:38:26.893Z,99808.58
2018-01-01T20:40:54.407Z,99806.91
2018-01-01T20:43:21.912Z,99809.47
2018-01-01T20:45:49.415Z,99809.58
2018-01-01T20:48:16.930Z,99811.70
2018-01-01T20:50:44.440Z,99808.21
2018-01-01T20:53:11.944Z,99800.27
2018-01-01T20:55:39.441Z,99797.64
2018-01-01T20:58:06.940Z,99791.75
2018-01-01T21:00:34.470Z,99793.41
2018-01-01T21:03:01.972Z,99795.17
2018-01-01T21:05:29.477Z,99786.80
2018-01-01T21:07:56.988Z,99790.67
2018-01-01T21:10:24.484Z,99793.30
2018-01-01T21:12:51.980Z,99788.88
2018-01-01T21:15:19.475Z,99791.97
2018-01-01T21:17:46.978Z,99788.55
2018-01-01T21:20:14.485Z,99790.14
2018-01-01T21:22:41.995Z,99782.55
2018-01-01T21:25:09.492Z,99787.48
2018-01-01T21:27:37.005Z,99786.87
2018-01-01T21:30:04.513Z,99793.59
2018-01-01T21:32:32.035Z,99793.09
2018-01-01T21:34:59.533Z,99795.28
2018-01-01T21:37:27.070Z,99797.94
2018-01-01T21:39:54.576Z,99798.33
2018-01-01T21:42:22.075Z,99797.80
2018-01-01T21:44:49.713Z,99806.92
2018-01-01T21:47:17.220Z,99803.83
2018-01-01T21:49:44.748Z,99810.05
2018-01-01T21:52:12.253Z,99805.27
2018-01-01T21:54:39.768Z,99797.61
2018-01-01T21:57:07.292Z,99804.48
2018-01-01T21:59:34.784Z,99805.27
2018-01-01T22:02:02.276Z,99805.45
2018-01-01T22:04:29.783Z,99802.36
2018-01-01T22:06:57.291Z,99807.75
2018-01-01T22:09:24.797Z,99803.83
2018-01-01T22:11:52.301Z,99800.17
2018-01-01T22:14:19.829Z,99801.50
2018-01-01T22:16:47.344Z,99792.19
2018-01-01T22:19:14.866Z,99790.82
2018-01-01T22:21:42.370Z,99795.23
2018-01-01T22:24:09.876Z,99789.84
2018-01-01T22:26:37.411Z,99788.84
2018-01-01T22:29:04.908Z,99793.63
2018-01-01T22:31:32.423Z,99796.31
2018-01-01T22:33:59.921Z,99799.41
2018-01-01T22:36:27.448Z,99793.84
2018-01-01T22:38:54.992Z,99792.40
2018-01-01T22:41:22.508Z,99789.30
2018-01-01T22:43:50.013Z,99785.86
2018-01-01T22:46:17.527Z,99791.00
2018-01-01T22:48:45.036Z,99791.00
2018-01-01T22:51:12.525Z,99788.00
2018-01-01T22:53:40.032Z,99792.11
2018-01-01T22:56:07.571Z,99787.33
2018-01-01T22:58:35.083Z,99783.66
2018-01-01T23:01:02.601Z,99784.98
2018-01-01T23:03:30.112Z,99776.18
2018-01-01T23:05:57.613Z,99780.96
2018-01-01T23:08:25.122Z,99772.59
2018-01-01T23:10:52.627Z,99774.71
2018-01-01T23:13:20.140Z,99779.03
2018-01-01T23:15:47.649Z,99779.45
2018-01-01T23:18:15.160Z,99775.50
2018-01-01T23:20:42.663Z,99772.20
2018-01-01T23:23:10.174Z,99775.07
2018-01-01T23:25:37.688Z,99782.05
2018-01-01T23:28:05.188Z,99772.52
2018-01-01T23:30:32.710Z,99774.75
2018-01-01T23:33:00.220Z,99779.45
2018-01-01T23:35:27.720Z,99774.67
2018-01-01T23:37:55.241Z,99779.20
2018-01-01T23:40:22.741Z,99772.05
2018-01-01T23:42:50.236Z,99779.03
2018-01-01T23:45:17.744Z,99777.23
2018-01-01T23:47:45.248Z,99779.81
2018-01-01T23:50:12.761Z,99777.19
2018-01-01T23:52:40.265Z,99776.33
2018-01-01T23:55:07.784Z,99763.27
2018-01-01T23:57:35.295Z,99767.41
